Reinersville, Ohio
Current Conditions -  °F | °C
As of 4:53 AM on Saturday 25 Oct 2014 (Local Time) from KZZV Reporting Station
Clear Clear  
Wind Chill: 37°   Ceiling: Unl
Heat Index: 37°   Visibility: 8mi
Dew Point: 35°   Wind: 0mph
Humidity: 93%   Direction: NA
Pressure: 29.99"   Gusts: NA
Location:  39.6878°N, 81.7727°W
Report Text: KZZV 250853Z AUTO 00000KT 8SM CLR 03/02 A2999 RMK AO2 SLP156 T00280017 58008
Loading
Personal Weather Stations






























Interactive Weather Map
Tropical Storm Tracking
New forecast layout! Learn more

10-Day Weather Forecast

Advertisements
Track Severe Weather on mobile